Time;durP1;ratioP1;P1;durP2;ratioP2;P2;SDS_P1;SDS_P2;PMS_P1;PMS_P2;Temp;Humidity;BMP_temperature;BMP_pressure;BME280_temperature;BME280_humidity;BME280_pressure;Samples;Min_cycle;Max_cycle;Signal;HPM_P1;HPM_P2
2023/08/07 00:01:50;;;;;;;39.13;37.15;;;;;;;;;;5079461;28;20393;-72
2023/08/07 00:04:16;;;;;;;37.08;35.17;;;;;;;;;;5080128;28;20040;-74
2023/08/07 00:06:41;;;;;;;31.98;30.33;;;;;;;;;;5075786;28;20106;-72
2023/08/07 00:09:07;;;;;;;37.42;35.50;;;;;;;;;;5082061;28;20115;-73
2023/08/07 00:11:32;;;;;;;35.33;33.50;;;;;;;;;;5073455;28;20084;-73
2023/08/07 00:13:58;;;;;;;34.53;32.75;;;;;;;;;;5081475;28;20031;-72
2023/08/07 00:16:23;;;;;;;34.83;33.03;;;;;;;;;;5080109;28;20032;-73
2023/08/07 00:18:49;;;;;;;33.50;31.67;;;;;;;;;;5080151;28;20039;-72
2023/08/07 00:21:14;;;;;;;33.08;31.35;;;;;;;;;;5076575;28;20112;-73
2023/08/07 00:23:39;;;;;;;31.00;29.38;;;;;;;;;;5081271;28;20025;-72
2023/08/07 00:26:05;;;;;;;32.97;31.27;;;;;;;;;;5080514;28;20064;-73
2023/08/07 00:28:30;;;;;;;30.15;28.60;;;;;;;;;;5079275;28;20060;-73
2023/08/07 00:30:56;;;;;;;30.13;28.52;;;;;;;;;;5078311;28;20043;-73
2023/08/07 00:33:22;;;;;;;31.25;29.60;;;;;;;;;;5078028;28;20425;-74
2023/08/07 00:35:48;;;;;;;34.08;32.10;;;;;;;;;;5074764;28;20071;-74
2023/08/07 00:38:13;;;;;;;29.33;27.77;;;;;;;;;;5078962;28;20466;-73
2023/08/07 00:40:39;;;;;;;25.48;24.13;;;;;;;;;;5065723;28;20140;-72
2023/08/07 00:43:05;;;;;;;23.20;21.90;;;;;;;;;;5078918;28;20064;-73
2023/08/07 00:45:38;;;;;;;22.98;21.20;;;;;;;;;;5076623;28;20032;-71
2023/08/07 00:48:05;;;;;;;20.95;19.75;;;;;;;;;;5094646;28;20048;-73
2023/08/07 00:50:30;;;;;;;19.85;18.77;;;;;;;;;;5078957;28;20423;-74
2023/08/07 00:52:56;;;;;;;18.38;17.38;;;;;;;;;;5077339;28;20111;-73
2023/08/07 00:55:21;;;;;;;19.02;18.00;;;;;;;;;;5079561;28;20040;-70
2023/08/07 00:57:47;;;;;;;20.63;19.50;;;;;;;;;;5075209;28;20043;-73
2023/08/07 01:00:14;;;;;;;20.02;18.92;;;;;;;;;;5079183;28;20048;-73
2023/08/07 01:02:39;;;;;;;17.42;16.45;;;;;;;;;;5076598;28;20379;-74
2023/08/07 01:05:05;;;;;;;19.08;18.00;;;;;;;;;;5076374;28;20497;-74
2023/08/07 01:07:30;;;;;;;20.00;18.90;;;;;;;;;;5072176;28;20111;-73
2023/08/07 01:09:57;;;;;;;18.42;17.42;;;;;;;;;;5106849;27;20059;-73
2023/08/07 01:12:30;;;;;;;16.85;15.93;;;;;;;;;;5076889;28;20032;-74
2023/08/07 01:15:05;;;;;;;25.13;23.80;;;;;;;;;;5077092;28;20437;-74
2023/08/07 01:17:33;;;;;;;29.33;27.77;;;;;;;;;;5073847;28;20136;-72
2023/08/07 01:19:59;;;;;;;40.33;38.20;;;;;;;;;;5073239;28;20176;-73
2023/08/07 01:22:24;;;;;;;39.25;37.22;;;;;;;;;;5076757;28;20067;-73
2023/08/07 01:24:51;;;;;;;36.60;34.65;;;;;;;;;;5077490;28;20153;-72
2023/08/07 01:27:19;;;;;;;38.92;36.92;;;;;;;;;;5078189;28;20366;-73
2023/08/07 01:30:09;;;;;;;39.97;37.92;;;;;;;;;;5076544;28;20537;-73
2023/08/07 01:32:47;;;;;;;27.65;26.20;;;;;;;;;;5075323;28;20036;-74
2023/08/07 01:35:16;;;;;;;32.63;30.92;;;;;;;;;;5073311;28;20477;-74
2023/08/07 01:37:42;;;;;;;28.50;27.00;;;;;;;;;;5073106;28;20101;-73
2023/08/07 01:40:09;;;;;;;32.55;30.85;;;;;;;;;;5109105;27;20440;-72
2023/08/07 01:42:36;;;;;;;30.67;29.08;;;;;;;;;;5074677;28;20033;-75
2023/08/07 01:45:02;;;;;;;26.25;24.85;;;;;;;;;;5074820;28;20094;-72
2023/08/07 01:47:27;;;;;;;28.92;27.42;;;;;;;;;;5076316;28;20555;-77
2023/08/07 01:49:52;;;;;;;28.65;27.15;;;;;;;;;;5075266;28;20032;-74
2023/08/07 01:52:18;;;;;;;27.27;25.65;;;;;;;;;;5076426;28;20094;-76
2023/08/07 01:54:43;;;;;;;31.05;29.20;;;;;;;;;;5073183;28;20454;-75
2023/08/07 01:57:08;;;;;;;29.02;27.23;;;;;;;;;;5073859;28;20032;-74
2023/08/07 01:59:34;;;;;;;29.42;27.83;;;;;;;;;;5074364;28;20028;-77
2023/08/07 02:01:59;;;;;;;25.05;23.65;;;;;;;;;;5072949;28;20358;-75
2023/08/07 02:04:24;;;;;;;28.80;27.30;;;;;;;;;;5073382;28;20042;-76
2023/08/07 02:06:50;;;;;;;25.70;24.33;;;;;;;;;;5077501;28;20378;-77
2023/08/07 02:09:15;;;;;;;26.10;24.70;;;;;;;;;;5077625;28;20025;-77
2023/08/07 02:11:40;;;;;;;26.13;24.75;;;;;;;;;;5074707;28;20413;-77
2023/08/07 02:14:06;;;;;;;26.83;25.42;;;;;;;;;;5074213;28;20058;-76
2023/08/07 02:16:31;;;;;;;27.85;26.38;;;;;;;;;;5077614;28;20036;-76
2023/08/07 02:18:56;;;;;;;26.63;25.23;;;;;;;;;;5074270;28;20040;-77
2023/08/07 02:21:22;;;;;;;27.92;26.42;;;;;;;;;;5107260;27;20120;-76
2023/08/07 02:23:47;;;;;;;26.73;25.05;;;;;;;;;;5075855;28;20063;-75
2023/08/07 02:26:13;;;;;;;25.05;23.75;;;;;;;;;;5077276;28;20082;-74
2023/08/07 02:28:38;;;;;;;28.05;26.40;;;;;;;;;;5076178;28;20603;-76
2023/08/07 02:31:03;;;;;;;26.45;25.05;;;;;;;;;;5075626;28;20048;-74
2023/08/07 02:33:32;;;;;;;26.70;25.30;;;;;;;;;;5073191;28;20031;-75
2023/08/07 02:35:57;;;;;;;24.02;22.75;;;;;;;;;;5076301;28;20448;-75
2023/08/07 02:38:23;;;;;;;25.20;23.88;;;;;;;;;;5076784;28;20108;-75
2023/08/07 02:40:48;;;;;;;27.42;25.95;;;;;;;;;;5076904;28;20035;-73
2023/08/07 02:43:13;;;;;;;24.52;23.23;;;;;;;;;;5075130;28;20028;-74
2023/08/07 02:45:39;;;;;;;26.98;25.48;;;;;;;;;;5075015;28;20036;-75
2023/08/07 02:48:05;;;;;;;26.67;25.08;;;;;;;;;;5077427;28;20119;-75
2023/08/07 02:50:32;;;;;;;24.92;23.60;;;;;;;;;;5075368;28;20543;-75
2023/08/07 02:52:58;;;;;;;25.88;24.50;;;;;;;;;;5075079;28;20360;-73
2023/08/07 02:55:23;;;;;;;25.67;24.27;;;;;;;;;;5078264;28;20024;-74
2023/08/07 02:57:49;;;;;;;26.48;25.08;;;;;;;;;;5076742;28;20516;-75
2023/08/07 03:00:14;;;;;;;25.23;23.85;;;;;;;;;;5078971;28;20097;-74
2023/08/07 03:02:40;;;;;;;25.90;24.50;;;;;;;;;;5108872;27;20064;-75
2023/08/07 03:05:05;;;;;;;25.58;24.20;;;;;;;;;;5074176;28;20032;-74
2023/08/07 03:07:30;;;;;;;29.83;28.27;;;;;;;;;;5079616;28;20036;-76
2023/08/07 03:09:56;;;;;;;26.25;24.85;;;;;;;;;;5074494;28;20111;-76
2023/08/07 03:12:21;;;;;;;26.33;24.92;;;;;;;;;;5076777;28;20063;-74
2023/08/07 03:14:47;;;;;;;29.50;27.90;;;;;;;;;;5074311;28;20036;-74
2023/08/07 03:17:12;;;;;;;27.40;25.10;;;;;;;;;;5074489;28;20032;-76
2023/08/07 03:19:41;;;;;;;25.17;23.88;;;;;;;;;;5074383;28;20036;-76
2023/08/07 03:22:07;;;;;;;25.67;23.58;;;;;;;;;;5076830;28;20047;-74
2023/08/07 03:24:32;;;;;;;25.08;23.73;;;;;;;;;;5076915;28;20089;-75
2023/08/07 03:26:57;;;;;;;27.48;26.02;;;;;;;;;;5075759;28;20028;-76
2023/08/07 03:29:23;;;;;;;29.92;27.85;;;;;;;;;;5077685;28;20357;-74
2023/08/07 03:31:48;;;;;;;21.50;20.30;;;;;;;;;;5080893;28;20028;-75
2023/08/07 03:34:14;;;;;;;22.27;21.08;;;;;;;;;;5085439;28;20531;-74
2023/08/07 03:36:39;;;;;;;21.90;20.70;;;;;;;;;;5083779;28;20036;-74
2023/08/07 03:39:04;;;;;;;24.10;22.60;;;;;;;;;;5081017;28;20105;-76
2023/08/07 03:41:30;;;;;;;23.05;21.80;;;;;;;;;;5080808;28;20101;-74
2023/08/07 03:43:55;;;;;;;26.20;24.83;;;;;;;;;;5085305;28;20044;-77
2023/08/07 03:46:20;;;;;;;26.20;24.80;;;;;;;;;;5078219;28;20505;-75
2023/08/07 03:48:46;;;;;;;27.05;25.45;;;;;;;;;;5077436;28;20020;-75
2023/08/07 03:51:11;;;;;;;23.52;22.27;;;;;;;;;;5078170;28;20028;-74
2023/08/07 03:53:37;;;;;;;26.15;24.75;;;;;;;;;;5079482;28;20035;-74
2023/08/07 03:56:03;;;;;;;27.65;26.23;;;;;;;;;;5076808;28;20377;-75
2023/08/07 03:58:28;;;;;;;26.42;25.02;;;;;;;;;;5076428;28;20036;-75
2023/08/07 04:00:53;;;;;;;26.65;25.05;;;;;;;;;;5077770;28;20028;-76
2023/08/07 04:03:22;;;;;;;26.80;25.30;;;;;;;;;;5076475;28;20028;-76
2023/08/07 04:05:52;;;;;;;24.60;23.30;;;;;;;;;;5079752;28;20059;-75
2023/08/07 04:08:17;;;;;;;26.55;25.15;;;;;;;;;;5077328;28;20024;-74
2023/08/07 04:10:42;;;;;;;25.23;23.88;;;;;;;;;;5080289;28;20039;-75
2023/08/07 04:13:08;;;;;;;23.20;21.80;;;;;;;;;;5076489;28;20032;-74
2023/08/07 04:15:33;;;;;;;27.40;25.60;;;;;;;;;;5077618;28;20082;-74
2023/08/07 04:17:58;;;;;;;25.00;23.70;;;;;;;;;;5079640;28;20060;-73
2023/08/07 04:20:24;;;;;;;23.70;22.42;;;;;;;;;;5080557;28;20320;-74
2023/08/07 04:22:49;;;;;;;26.35;24.95;;;;;;;;;;5078583;28;20020;-75
2023/08/07 04:25:15;;;;;;;28.52;27.02;;;;;;;;;;5077805;28;20109;-73
2023/08/07 04:27:40;;;;;;;20.60;19.50;;;;;;;;;;5110796;27;20050;-74
2023/08/07 04:30:06;;;;;;;26.35;24.95;;;;;;;;;;5077270;28;20044;-74
2023/08/07 04:32:31;;;;;;;21.70;20.50;;;;;;;;;;5085176;28;20088;-75
2023/08/07 04:34:57;;;;;;;20.00;18.90;;;;;;;;;;5074999;28;20055;-75
2023/08/07 04:37:23;;;;;;;23.75;22.15;;;;;;;;;;5077485;28;20478;-74
2023/08/07 04:39:48;;;;;;;23.27;22.02;;;;;;;;;;5078396;28;20120;-77
2023/08/07 04:42:13;;;;;;;22.73;21.45;;;;;;;;;;5078653;28;20025;-75
2023/08/07 04:44:39;;;;;;;24.52;23.23;;;;;;;;;;5078090;28;20454;-75
2023/08/07 04:47:05;;;;;;;23.95;22.65;;;;;;;;;;5078337;28;20079;-76
2023/08/07 04:49:30;;;;;;;26.90;25.33;;;;;;;;;;5076112;28;20036;-77
2023/08/07 04:51:56;;;;;;;25.88;24.48;;;;;;;;;;5077651;28;20037;-75
2023/08/07 04:54:21;;;;;;;22.98;21.67;;;;;;;;;;5077655;28;20040;-76
2023/08/07 04:56:46;;;;;;;23.13;21.70;;;;;;;;;;5078656;28;20043;-75
2023/08/07 04:59:12;;;;;;;24.70;23.40;;;;;;;;;;5078017;28;20421;-76
2023/08/07 05:01:38;;;;;;;25.33;23.85;;;;;;;;;;5075147;28;20462;-77
2023/08/07 05:04:05;;;;;;;20.58;19.48;;;;;;;;;;5075978;28;20074;-74
2023/08/07 05:06:30;;;;;;;20.88;19.77;;;;;;;;;;5078515;28;20048;-76
2023/08/07 05:08:56;;;;;;;21.52;20.38;;;;;;;;;;5078016;28;20064;-74
2023/08/07 05:11:21;;;;;;;21.75;20.45;;;;;;;;;;5073183;28;20040;-74
2023/08/07 05:13:46;;;;;;;21.02;19.92;;;;;;;;;;5077929;28;20032;-75
2023/08/07 05:16:12;;;;;;;25.58;24.08;;;;;;;;;;5079659;28;20036;-74
2023/08/07 05:18:37;;;;;;;20.35;19.25;;;;;;;;;;5082230;28;20457;-73
2023/08/07 05:21:03;;;;;;;20.65;19.45;;;;;;;;;;5076902;28;20488;-73
2023/08/07 05:23:28;;;;;;;24.00;22.70;;;;;;;;;;5076350;28;20476;-70
2023/08/07 05:25:53;;;;;;;21.30;20.00;;;;;;;;;;5078211;28;20626;-74
2023/08/07 05:28:19;;;;;;;19.60;18.50;;;;;;;;;;5081089;28;20042;-74
2023/08/07 05:30:44;;;;;;;20.70;19.60;;;;;;;;;;5079487;28;20039;-74
2023/08/07 05:33:10;;;;;;;21.42;20.23;;;;;;;;;;5080285;28;20063;-76
2023/08/07 05:35:38;;;;;;;20.63;19.52;;;;;;;;;;5075284;28;20470;-74
2023/08/07 05:38:03;;;;;;;24.10;22.77;;;;;;;;;;5079085;28;20040;-77
2023/08/07 05:40:29;;;;;;;22.10;20.90;;;;;;;;;;5079690;28;20489;-77
2023/08/07 05:42:55;;;;;;;17.75;16.75;;;;;;;;;;5080211;28;20044;-74
2023/08/07 05:45:20;;;;;;;17.65;16.65;;;;;;;;;;5079773;28;20036;-76
2023/08/07 05:47:45;;;;;;;18.40;16.95;;;;;;;;;;5079928;28;20028;-76
2023/08/07 05:50:11;;;;;;;19.13;17.58;;;;;;;;;;5078207;28;20123;-74
2023/08/07 05:52:36;;;;;;;17.25;16.20;;;;;;;;;;5077404;28;20055;-77
2023/08/07 05:55:03;;;;;;;17.23;16.25;;;;;;;;;;5076976;28;20031;-75
2023/08/07 05:57:28;;;;;;;17.10;16.10;;;;;;;;;;5075390;28;20043;-75
2023/08/07 05:59:53;;;;;;;16.52;15.63;;;;;;;;;;5078235;28;20032;-78
2023/08/07 06:02:19;;;;;;;17.60;16.60;;;;;;;;;;5078360;28;20101;-74
2023/08/07 06:04:45;;;;;;;16.17;15.25;;;;;;;;;;5075681;28;20043;-76
2023/08/07 06:07:10;;;;;;;18.92;17.83;;;;;;;;;;5077708;28;20736;-75
2023/08/07 06:09:35;;;;;;;13.02;12.27;;;;;;;;;;5078917;28;20101;-74
2023/08/07 06:12:01;;;;;;;13.60;12.80;;;;;;;;;;5077319;28;20043;-76
2023/08/07 06:14:26;;;;;;;14.82;14.02;;;;;;;;;;5076222;28;20028;-74
2023/08/07 06:16:52;;;;;;;15.45;14.55;;;;;;;;;;5075234;28;20332;-73
2023/08/07 06:19:17;;;;;;;18.42;17.33;;;;;;;;;;5079209;28;20423;-73
2023/08/07 06:21:43;;;;;;;18.30;17.30;;;;;;;;;;5079647;28;20090;-73
2023/08/07 06:24:09;;;;;;;16.23;15.32;;;;;;;;;;5079480;28;20035;-73
2023/08/07 06:26:34;;;;;;;17.63;16.63;;;;;;;;;;5077331;28;20067;-75
2023/08/07 06:28:59;;;;;;;15.95;15.05;;;;;;;;;;5073057;28;20123;-74
2023/08/07 06:31:25;;;;;;;18.80;17.75;;;;;;;;;;5077907;28;20036;-73
2023/08/07 06:33:50;;;;;;;18.40;17.00;;;;;;;;;;5073594;28;20120;-75
2023/08/07 06:36:15;;;;;;;18.50;17.50;;;;;;;;;;5075047;28;20075;-75
2023/08/07 06:38:41;;;;;;;18.02;17.02;;;;;;;;;;5080139;28;20699;-73
2023/08/07 06:41:06;;;;;;;18.63;17.58;;;;;;;;;;5075793;28;20036;-73
2023/08/07 06:43:32;;;;;;;16.38;15.48;;;;;;;;;;5074483;28;20040;-73
2023/08/07 06:45:58;;;;;;;18.63;17.63;;;;;;;;;;5074234;28;20092;-73
2023/08/07 06:48:24;;;;;;;19.15;18.05;;;;;;;;;;5077782;28;20024;-73
2023/08/07 06:50:50;;;;;;;17.65;16.65;;;;;;;;;;5074811;28;20040;-75
2023/08/07 06:53:15;;;;;;;18.75;17.70;;;;;;;;;;5078066;28;20117;-76
2023/08/07 06:55:41;;;;;;;15.23;14.32;;;;;;;;;;5075788;28;20035;-75
2023/08/07 06:58:07;;;;;;;17.70;16.70;;;;;;;;;;5077246;28;20385;-74
2023/08/07 07:00:35;;;;;;;17.23;16.27;;;;;;;;;;5077134;28;20434;-76
2023/08/07 07:03:00;;;;;;;17.42;16.10;;;;;;;;;;5075845;28;20093;-74
2023/08/07 07:05:25;;;;;;;19.30;18.20;;;;;;;;;;5080158;28;20103;-74
2023/08/07 07:07:51;;;;;;;20.20;19.10;;;;;;;;;;5080013;28;20032;-75
2023/08/07 07:10:16;;;;;;;20.17;19.08;;;;;;;;;;5079899;28;20266;-75
2023/08/07 07:12:41;;;;;;;17.63;16.63;;;;;;;;;;5079275;28;20494;-76
2023/08/07 07:15:07;;;;;;;18.17;17.17;;;;;;;;;;5081789;28;20503;-76
2023/08/07 07:17:32;;;;;;;20.63;19.27;;;;;;;;;;5079045;28;20059;-76
2023/08/07 07:19:58;;;;;;;21.25;20.05;;;;;;;;;;5078925;28;20039;-76
2023/08/07 07:22:23;;;;;;;15.68;14.77;;;;;;;;;;5082261;28;20039;-76
2023/08/07 07:24:48;;;;;;;16.08;15.18;;;;;;;;;;5080768;28;20059;-75
2023/08/07 07:27:14;;;;;;;14.70;13.85;;;;;;;;;;5081913;28;20097;-74
2023/08/07 07:29:39;;;;;;;14.65;13.85;;;;;;;;;;5079510;28;20434;-75
2023/08/07 07:32:05;;;;;;;16.35;15.43;;;;;;;;;;5079799;28;20028;-76
2023/08/07 07:34:30;;;;;;;14.23;13.35;;;;;;;;;;5079840;28;20383;-76
2023/08/07 07:36:55;;;;;;;14.00;13.20;;;;;;;;;;5080754;28;20028;-74
2023/08/07 07:39:21;;;;;;;13.25;12.45;;;;;;;;;;5078390;28;20032;-76
2023/08/07 07:41:46;;;;;;;12.50;11.75;;;;;;;;;;5077073;28;20478;-74
2023/08/07 07:44:12;;;;;;;12.32;11.52;;;;;;;;;;5082683;28;20036;-73
2023/08/07 07:46:38;;;;;;;12.23;11.43;;;;;;;;;;5082206;28;20047;-76
2023/08/07 07:49:04;;;;;;;13.70;12.70;;;;;;;;;;5077133;28;20444;-76
2023/08/07 07:51:31;;;;;;;14.13;13.32;;;;;;;;;;5074459;28;20149;-76
2023/08/07 07:53:57;;;;;;;14.50;13.70;;;;;;;;;;5077985;28;20029;-77
2023/08/07 07:56:22;;;;;;;11.35;10.65;;;;;;;;;;5081098;28;20055;-76
2023/08/07 07:58:48;;;;;;;12.77;11.98;;;;;;;;;;5079483;28;20763;-75
2023/08/07 08:01:13;;;;;;;12.45;11.75;;;;;;;;;;5080279;28;20482;-77
2023/08/07 08:03:39;;;;;;;12.77;12.02;;;;;;;;;;5079141;28;20035;-74
2023/08/07 08:06:04;;;;;;;13.73;12.93;;;;;;;;;;5078826;28;20445;-76
2023/08/07 08:08:29;;;;;;;14.98;13.75;;;;;;;;;;5078079;28;20354;-75
2023/08/07 08:10:55;;;;;;;14.50;13.60;;;;;;;;;;5080677;28;20028;-75
2023/08/07 08:13:20;;;;;;;14.15;13.25;;;;;;;;;;5080059;28;20090;-75
2023/08/07 08:15:45;;;;;;;14.25;13.25;;;;;;;;;;5078212;28;20466;-74
2023/08/07 08:18:11;;;;;;;12.30;11.60;;;;;;;;;;5080020;28;20181;-74
2023/08/07 08:20:38;;;;;;;12.82;12.13;;;;;;;;;;5081481;28;20124;-76
2023/08/07 08:23:04;;;;;;;14.45;13.65;;;;;;;;;;5082649;28;20043;-76
2023/08/07 08:25:30;;;;;;;11.80;11.10;;;;;;;;;;5077122;28;20040;-74
2023/08/07 08:27:56;;;;;;;15.13;14.27;;;;;;;;;;5083843;28;20044;-75
2023/08/07 08:30:21;;;;;;;13.07;12.27;;;;;;;;;;5081046;28;20158;-76
2023/08/07 08:32:47;;;;;;;14.93;14.02;;;;;;;;;;5080604;28;20332;-74
2023/08/07 08:35:12;;;;;;;14.18;13.02;;;;;;;;;;5080739;28;20039;-74
2023/08/07 08:37:38;;;;;;;13.27;12.45;;;;;;;;;;5081165;28;20369;-74
2023/08/07 08:40:06;;;;;;;12.90;12.20;;;;;;;;;;5081077;28;20040;-75
2023/08/07 08:42:31;;;;;;;12.30;11.60;;;;;;;;;;5081837;28;20047;-76
2023/08/07 08:44:59;;;;;;;11.90;11.20;;;;;;;;;;5078789;28;20032;-73
2023/08/07 08:47:26;;;;;;;12.52;11.82;;;;;;;;;;5083902;28;20449;-72
2023/08/07 08:50:15;;;;;;;13.80;12.90;;;;;;;;;;5079971;28;20354;-74
2023/08/07 08:52:43;;;;;;;14.68;13.63;;;;;;;;;;5072570;28;20182;-74
2023/08/07 08:55:10;;;;;;;10.50;9.90;;;;;;;;;;5082254;28;20406;-73
2023/08/07 08:57:35;;;;;;;11.45;10.75;;;;;;;;;;5078198;28;20032;-74
2023/08/07 09:00:06;;;;;;;12.18;11.48;;;;;;;;;;5077810;28;20028;-75
2023/08/07 09:02:32;;;;;;;13.43;12.63;;;;;;;;;;5080652;28;20047;-76
2023/08/07 09:04:58;;;;;;;11.45;10.75;;;;;;;;;;5079033;28;20282;-75
2023/08/07 09:07:24;;;;;;;10.30;9.70;;;;;;;;;;5079841;28;20556;-74
2023/08/07 09:09:50;;;;;;;11.32;10.63;;;;;;;;;;5083585;28;20036;-74
2023/08/07 09:12:29;;;;;;;11.02;10.32;;;;;;;;;;5078387;28;20485;-75
2023/08/07 09:14:56;;;;;;;11.98;11.00;;;;;;;;;;5080580;28;20088;-75
2023/08/07 09:17:28;;;;;;;11.18;10.38;;;;;;;;;;5077233;28;20028;-75
2023/08/07 09:19:54;;;;;;;10.40;9.73;;;;;;;;;;5079453;28;20035;-73
2023/08/07 09:22:20;;;;;;;11.38;10.57;;;;;;;;;;5079967;28;20039;-74
2023/08/07 09:24:46;;;;;;;10.40;9.77;;;;;;;;;;5075073;28;20119;-71
2023/08/07 09:27:12;;;;;;;11.13;10.43;;;;;;;;;;5077789;28;20745;-69
2023/08/07 09:29:41;;;;;;;11.35;10.50;;;;;;;;;;5079213;28;20066;-69
2023/08/07 09:32:13;;;;;;;12.10;11.40;;;;;;;;;;5077975;28;20040;-69
2023/08/07 09:34:42;;;;;;;10.80;10.15;;;;;;;;;;5078647;28;20123;-73
2023/08/07 09:37:08;;;;;;;12.10;11.40;;;;;;;;;;5077319;28;20044;-73
2023/08/07 09:39:35;;;;;;;10.60;9.90;;;;;;;;;;5077925;28;20039;-72
2023/08/07 09:42:01;;;;;;;11.32;10.63;;;;;;;;;;5076484;28;20042;-68
2023/08/07 09:44:35;;;;;;;13.55;12.75;;;;;;;;;;5079424;28;20032;-69
2023/08/07 09:47:10;;;;;;;12.32;11.63;;;;;;;;;;5078061;28;20032;-68
2023/08/07 09:49:35;;;;;;;13.75;12.85;;;;;;;;;;5075608;28;20675;-69
2023/08/07 09:52:07;;;;;;;13.88;12.98;;;;;;;;;;5079471;28;20119;-68
2023/08/07 09:54:32;;;;;;;12.63;11.93;;;;;;;;;;5077929;28;20068;-69
2023/08/07 09:56:59;;;;;;;13.57;12.77;;;;;;;;;;5079348;28;20032;-68
2023/08/07 09:59:27;;;;;;;13.07;12.27;;;;;;;;;;5080118;28;20032;-68
2023/08/07 10:01:54;;;;;;;13.20;12.40;;;;;;;;;;5077736;28;20039;-68
2023/08/07 10:04:20;;;;;;;14.18;13.38;;;;;;;;;;5077033;28;20082;-69
2023/08/07 10:06:46;;;;;;;13.48;12.68;;;;;;;;;;5076438;28;20886;-68
2023/08/07 10:09:11;;;;;;;13.48;12.68;;;;;;;;;;5074707;28;20037;-69
2023/08/07 10:11:39;;;;;;;13.52;12.73;;;;;;;;;;5078355;28;20036;-68
2023/08/07 10:14:05;;;;;;;14.27;13.48;;;;;;;;;;5077812;28;20036;-69
2023/08/07 10:16:30;;;;;;;14.98;13.98;;;;;;;;;;5077531;28;20032;-69
2023/08/07 10:18:56;;;;;;;15.52;14.52;;;;;;;;;;5076781;28;20043;-69
2023/08/07 10:21:23;;;;;;;16.10;15.10;;;;;;;;;;5078792;28;20028;-69
2023/08/07 10:23:52;;;;;;;12.82;12.13;;;;;;;;;;5079923;28;20614;-69
2023/08/07 10:26:19;;;;;;;12.18;11.38;;;;;;;;;;5079065;28;20073;-69
2023/08/07 10:28:46;;;;;;;12.65;11.85;;;;;;;;;;5076810;28;20034;-69
2023/08/07 10:31:13;;;;;;;13.95;13.05;;;;;;;;;;5077098;28;20544;-69
2023/08/07 10:33:40;;;;;;;12.98;12.10;;;;;;;;;;5076023;28;20039;-76
2023/08/07 10:36:10;;;;;;;12.60;11.90;;;;;;;;;;5080377;28;20028;-77
2023/08/07 10:38:36;;;;;;;12.13;11.43;;;;;;;;;;5082494;28;20376;-71
2023/08/07 10:41:14;;;;;;;12.00;10.90;;;;;;;;;;5080662;28;20123;-74
2023/08/07 10:43:44;;;;;;;12.50;11.70;;;;;;;;;;5082961;28;20354;-68
2023/08/07 10:46:15;;;;;;;10.85;10.00;;;;;;;;;;5083572;28;20118;-70
2023/08/07 10:48:43;;;;;;;12.43;11.65;;;;;;;;;;5080552;28;20084;-77
2023/08/07 10:51:11;;;;;;;11.00;10.30;;;;;;;;;;5078905;28;20039;-70
2023/08/07 10:53:48;;;;;;;11.55;10.80;;;;;;;;;;5076570;28;20677;-69
2023/08/07 10:56:30;;;;;;;11.05;10.35;;;;;;;;;;5107265;27;20032;-74
2023/08/07 10:58:56;;;;;;;11.15;10.45;;;;;;;;;;5077589;28;20024;-72
2023/08/07 11:01:34;;;;;;;11.20;10.50;;;;;;;;;;5074813;28;20035;-69
2023/08/07 11:04:06;;;;;;;11.82;11.13;;;;;;;;;;5074918;28;21503;-73
2023/08/07 11:06:34;;;;;;;11.43;10.73;;;;;;;;;;5075060;28;20108;-76
2023/08/07 11:09:05;;;;;;;12.10;11.40;;;;;;;;;;5076318;28;20036;-73
2023/08/07 11:11:44;;;;;;;11.48;10.77;;;;;;;;;;5074592;28;20047;-75
2023/08/07 11:14:16;;;;;;;11.50;10.80;;;;;;;;;;5073254;28;20097;-74
2023/08/07 11:16:43;;;;;;;11.82;11.07;;;;;;;;;;5073227;28;20031;-76
2023/08/07 11:19:09;;;;;;;11.70;11.00;;;;;;;;;;5076869;28;20150;-72
2023/08/07 11:21:34;;;;;;;12.82;12.02;;;;;;;;;;5074681;28;20024;-74
2023/08/07 11:24:01;;;;;;;11.30;10.60;;;;;;;;;;5074365;28;20216;-73
2023/08/07 11:26:28;;;;;;;11.75;10.95;;;;;;;;;;5073519;28;20146;-74
2023/08/07 11:28:54;;;;;;;13.13;12.32;;;;;;;;;;5071626;28;20032;-72
2023/08/07 11:31:21;;;;;;;12.00;11.30;;;;;;;;;;5093465;28;20506;-72
2023/08/07 11:33:46;;;;;;;12.02;11.32;;;;;;;;;;5076084;28;20025;-73
2023/08/07 11:36:13;;;;;;;12.93;12.13;;;;;;;;;;5079370;28;20477;-72
2023/08/07 11:38:43;;;;;;;12.57;11.80;;;;;;;;;;5076451;28;20032;-72
2023/08/07 11:41:10;;;;;;;13.02;12.23;;;;;;;;;;5076175;28;20610;-71
2023/08/07 11:43:36;;;;;;;12.70;11.90;;;;;;;;;;5075536;28;20680;-71
2023/08/07 11:46:04;;;;;;;12.30;11.60;;;;;;;;;;5075096;28;20036;-74
2023/08/07 11:48:31;;;;;;;12.68;11.98;;;;;;;;;;5072721;28;20126;-75
2023/08/07 11:50:57;;;;;;;12.10;11.40;;;;;;;;;;5071985;28;20036;-73
2023/08/07 11:53:25;;;;;;;12.95;12.15;;;;;;;;;;5078837;28;20449;-74
2023/08/07 11:55:56;;;;;;;11.88;11.10;;;;;;;;;;5076695;28;20043;-71
2023/08/07 11:58:24;;;;;;;12.13;11.43;;;;;;;;;;5079007;28;20537;-72
2023/08/07 12:00:49;;;;;;;12.18;11.48;;;;;;;;;;5079030;28;20051;-74
2023/08/07 12:03:38;;;;;;;11.50;10.80;;;;;;;;;;5081626;28;20024;-73
2023/08/07 12:06:05;;;;;;;11.45;10.75;;;;;;;;;;5079330;28;20037;-71
2023/08/07 12:08:38;;;;;;;11.27;10.57;;;;;;;;;;5083275;28;20050;-71
2023/08/07 12:11:06;;;;;;;11.10;10.40;;;;;;;;;;5076749;28;20459;-71
2023/08/07 12:13:35;;;;;;;12.38;11.57;;;;;;;;;;5081433;28;20035;-68
2023/08/07 12:16:02;;;;;;;12.18;11.48;;;;;;;;;;5081460;28;20032;-69
2023/08/07 12:18:28;;;;;;;11.73;10.93;;;;;;;;;;5080818;28;20126;-68
2023/08/07 12:21:01;;;;;;;11.00;10.30;;;;;;;;;;5080762;28;20453;-69
2023/08/07 12:23:27;;;;;;;12.32;11.57;;;;;;;;;;5097316;28;20097;-69
2023/08/07 12:25:53;;;;;;;11.57;10.88;;;;;;;;;;5079714;28;20040;-69
2023/08/07 12:28:19;;;;;;;13.05;12.25;;;;;;;;;;5083920;28;20024;-69
2023/08/07 12:30:48;;;;;;;11.73;11.02;;;;;;;;;;5077420;28;20033;-68
2023/08/07 12:33:14;;;;;;;10.70;10.07;;;;;;;;;;5077565;28;20024;-68
2023/08/07 12:35:40;;;;;;;11.15;10.40;;;;;;;;;;5078572;28;20062;-69
2023/08/07 12:38:07;;;;;;;10.77;10.07;;;;;;;;;;5080551;28;20046;-69
2023/08/07 12:40:33;;;;;;;12.48;11.73;;;;;;;;;;5080758;28;20042;-68
2023/08/07 12:42:59;;;;;;;12.02;11.32;;;;;;;;;;5080778;28;20035;-68
2023/08/07 12:45:24;;;;;;;11.32;10.63;;;;;;;;;;5079178;28;20040;-68
2023/08/07 12:47:50;;;;;;;11.02;10.32;;;;;;;;;;5079283;28;20176;-68
2023/08/07 12:50:15;;;;;;;10.70;10.00;;;;;;;;;;5080485;28;20032;-69
2023/08/07 12:52:41;;;;;;;10.02;9.43;;;;;;;;;;5077113;28;20016;-69
2023/08/07 12:55:07;;;;;;;10.30;9.60;;;;;;;;;;5078327;28;20183;-69
2023/08/07 12:57:33;;;;;;;11.25;10.45;;;;;;;;;;5078803;28;20098;-67
2023/08/07 12:59:58;;;;;;;10.45;9.75;;;;;;;;;;5081056;28;20036;-69
2023/08/07 13:02:23;;;;;;;12.13;11.43;;;;;;;;;;5078271;28;20369;-69
2023/08/07 13:04:49;;;;;;;10.98;10.27;;;;;;;;;;5074828;28;20111;-69
2023/08/07 13:07:14;;;;;;;11.32;10.63;;;;;;;;;;5078554;28;20047;-69
2023/08/07 13:09:40;;;;;;;12.00;11.20;;;;;;;;;;5081368;28;20377;-69
2023/08/07 13:12:06;;;;;;;13.68;12.35;;;;;;;;;;5079716;28;20032;-69
2023/08/07 13:14:31;;;;;;;12.15;11.45;;;;;;;;;;5075761;28;20287;-69
2023/08/07 13:16:57;;;;;;;11.38;10.68;;;;;;;;;;5076069;28;20036;-69
2023/08/07 13:19:22;;;;;;;14.80;14.00;;;;;;;;;;5084627;28;20097;-69
2023/08/07 13:21:48;;;;;;;12.07;11.38;;;;;;;;;;5076042;28;20043;-69
2023/08/07 13:24:13;;;;;;;12.90;12.10;;;;;;;;;;5074778;28;20037;-69
2023/08/07 13:26:44;;;;;;;11.60;10.90;;;;;;;;;;5077584;28;20031;-69
2023/08/07 13:29:10;;;;;;;12.75;11.95;;;;;;;;;;5078617;28;20061;-69
2023/08/07 13:31:36;;;;;;;13.20;12.40;;;;;;;;;;5075186;28;20032;-69
2023/08/07 13:34:07;;;;;;;17.02;16.05;;;;;;;;;;5077420;28;20343;-67
2023/08/07 13:36:32;;;;;;;17.83;16.83;;;;;;;;;;5080962;28;20510;-69
2023/08/07 13:39:00;;;;;;;18.15;17.15;;;;;;;;;;5078785;28;20051;-68
2023/08/07 13:41:25;;;;;;;13.68;12.85;;;;;;;;;;5078191;28;20320;-70
2023/08/07 13:43:50;;;;;;;16.75;15.85;;;;;;;;;;5079931;28;20056;-69
2023/08/07 13:46:16;;;;;;;17.17;16.17;;;;;;;;;;5077541;28;20032;-69
2023/08/07 13:48:41;;;;;;;12.48;11.77;;;;;;;;;;5076753;28;20036;-69
2023/08/07 13:51:08;;;;;;;17.75;16.75;;;;;;;;;;5075424;28;20288;-69
2023/08/07 13:53:33;;;;;;;15.23;14.35;;;;;;;;;;5077137;28;20766;-68
2023/08/07 13:55:58;;;;;;;12.65;11.95;;;;;;;;;;5075587;28;20446;-68
2023/08/07 13:58:24;;;;;;;14.70;13.90;;;;;;;;;;5076462;28;20401;-67
2023/08/07 14:00:49;;;;;;;16.63;15.52;;;;;;;;;;5073634;28;20024;-67
2023/08/07 14:03:14;;;;;;;12.40;11.70;;;;;;;;;;5108040;27;20028;-68
2023/08/07 14:05:40;;;;;;;12.57;11.88;;;;;;;;;;5076423;28;20097;-67
2023/08/07 14:08:05;;;;;;;12.30;11.50;;;;;;;;;;5072098;28;20048;-67
2023/08/07 14:10:30;;;;;;;11.93;11.23;;;;;;;;;;5080382;28;20488;-67
2023/08/07 14:12:56;;;;;;;11.00;10.30;;;;;;;;;;5075284;28;20024;-67